createdAt,value
2022-11-29T00:01:29.154Z,100.00
2022-11-29T00:07:35.280Z,100.00
2022-11-29T00:14:32.507Z,100.00
2022-11-29T00:17:22.858Z,100.00
2022-11-29T00:20:35.687Z,100.00
2022-11-29T00:26:58.550Z,100.00
2022-11-29T00:30:11.749Z,100.00
2022-11-29T00:33:14.866Z,100.00
2022-11-29T00:39:22.183Z,100.00
2022-11-29T00:42:41.487Z,100.00
2022-11-29T00:45:49.225Z,100.00
2022-11-29T00:48:48.502Z,100.00
2022-11-29T00:51:48.618Z,100.00
2022-11-29T01:01:29.850Z,100.00
2022-11-29T01:04:34.150Z,100.00
2022-11-29T01:10:53.881Z,100.00
2022-11-29T01:14:12.509Z,100.00
2022-11-29T01:17:45.308Z,100.00
2022-11-29T01:28:43.673Z,100.00
2022-11-29T01:34:40.388Z,100.00
2022-11-29T01:37:14.721Z,100.00
2022-11-29T01:40:53.905Z,100.00
2022-11-29T01:47:52.562Z,100.00
2022-11-29T01:51:28.322Z,100.00
2022-11-29T01:54:48.860Z,100.00
2022-11-29T02:02:08.124Z,100.00
2022-11-29T02:05:10.271Z,100.00
2022-11-29T02:08:23.833Z,100.00
2022-11-29T02:11:47.817Z,100.00
2022-11-29T02:21:50.626Z,100.00
2022-11-29T02:30:06.534Z,100.00
2022-11-29T02:33:11.484Z,100.00
2022-11-29T02:36:58.252Z,100.00
2022-11-29T02:45:18.001Z,100.00
2022-11-29T02:49:00.943Z,100.00
2022-11-29T02:52:41.963Z,100.00
2022-11-29T03:00:08.721Z,100.00
2022-11-29T03:07:35.397Z,100.00
2022-11-29T03:10:35.026Z,100.00
2022-11-29T03:14:06.167Z,100.00
2022-11-29T03:17:20.889Z,100.00
2022-11-29T03:24:27.230Z,100.00
2022-11-29T03:27:42.302Z,100.00
2022-11-29T03:30:40.815Z,100.00
2022-11-29T03:37:10.842Z,100.00
2022-11-29T03:43:45.889Z,100.00
2022-11-29T03:46:46.655Z,100.00
2022-11-29T03:49:46.454Z,100.00
2022-11-29T03:52:45.947Z,100.00
2022-11-29T03:56:05.705Z,100.00
2022-11-29T04:03:07.976Z,100.00
2022-11-29T04:14:46.687Z,100.00
2022-11-29T04:21:46.476Z,100.00
2022-11-29T04:25:23.749Z,100.00
2022-11-29T04:28:36.848Z,100.00
2022-11-29T04:31:42.989Z,100.00
2022-11-29T04:34:50.636Z,100.00
2022-11-29T04:38:19.999Z,100.00
2022-11-29T04:41:34.454Z,100.00
2022-11-29T04:45:17.067Z,100.00
2022-11-29T04:55:50.406Z,100.00
2022-11-29T05:06:22.183Z,100.00
2022-11-29T05:14:18.216Z,100.00
2022-11-29T05:26:05.758Z,100.00
2022-11-29T05:32:41.643Z,100.00
2022-11-29T05:35:57.015Z,100.00
2022-11-29T05:39:19.845Z,100.00
2022-11-29T05:45:53.088Z,100.00
2022-11-29T05:57:48.629Z,100.00
2022-11-29T06:32:11.298Z,100.00
2022-11-29T06:35:33.572Z,100.00
2022-11-29T06:38:54.379Z,100.00
2022-11-29T06:45:53.831Z,100.00
2022-11-29T06:57:02.642Z,100.00
2022-11-29T06:59:40.885Z,100.00
2022-11-29T07:02:18.273Z,100.00
2022-11-29T07:05:13.161Z,100.00
2022-11-29T07:07:42.164Z,100.00
2022-11-29T07:10:21.023Z,100.00
2022-11-29T07:12:51.262Z,100.00
2022-11-29T07:15:23.740Z,100.00
2022-11-29T07:18:15.790Z,100.00
2022-11-29T07:21:11.983Z,100.00
2022-11-29T07:23:54.593Z,100.00
2022-11-29T07:26:38.301Z,100.00
2022-11-29T07:29:53.775Z,100.00
2022-11-29T07:32:51.471Z,100.00
2022-11-29T07:35:42.081Z,100.00
2022-11-29T07:38:26.351Z,100.00
2022-11-29T07:41:31.662Z,100.00
2022-11-29T07:44:24.995Z,100.00
2022-11-29T07:47:22.148Z,100.00
2022-11-29T07:50:08.023Z,100.00
2022-11-29T07:52:43.513Z,100.00
2022-11-29T07:55:32.205Z,100.00
2022-11-29T07:58:26.608Z,100.00
2022-11-29T08:01:30.486Z,100.00
2022-11-29T08:04:37.702Z,100.00
2022-11-29T08:07:26.774Z,100.00
2022-11-29T08:10:07.610Z,100.00
2022-11-29T08:12:47.953Z,100.00
2022-11-29T08:15:32.341Z,100.00
2022-11-29T08:18:19.702Z,100.00
2022-11-29T08:21:01.105Z,100.00
2022-11-29T08:23:53.389Z,100.00
2022-11-29T08:26:42.847Z,100.00
2022-11-29T08:29:41.142Z,100.00
2022-11-29T08:32:39.817Z,100.00
2022-11-29T08:35:21.778Z,100.00
2022-11-29T08:38:06.793Z,100.00
2022-11-29T08:40:43.148Z,100.00
2022-11-29T08:43:15.972Z,100.00
2022-11-29T08:45:55.042Z,100.00
2022-11-29T08:48:29.909Z,100.00
2022-11-29T08:51:13.864Z,100.00
2022-11-29T08:53:49.107Z,100.00
2022-11-29T08:59:31.104Z,100.00
2022-11-29T09:02:17.070Z,100.00
2022-11-29T09:04:55.827Z,100.00
2022-11-29T09:07:37.669Z,100.00
2022-11-29T09:13:56.915Z,100.00
2022-11-29T09:16:42.723Z,100.00
2022-11-29T09:19:19.193Z,100.00
2022-11-29T09:21:47.892Z,100.00
2022-11-29T09:24:21.595Z,100.00
2022-11-29T09:27:15.931Z,100.00
2022-11-29T09:30:23.377Z,100.00
2022-11-29T09:36:13.425Z,100.00
2022-11-29T09:42:22.411Z,100.00
2022-11-29T09:45:29.071Z,100.00
2022-11-29T09:48:34.347Z,100.00
2022-11-29T09:51:18.609Z,100.00
2022-11-29T09:54:15.817Z,100.00
2022-11-29T09:56:57.523Z,100.00
2022-11-29T10:00:12.648Z,100.00
2022-11-29T10:03:16.404Z,100.00
2022-11-29T10:06:18.062Z,100.00
2022-11-29T10:09:23.553Z,100.00
2022-11-29T10:12:17.597Z,100.00
2022-11-29T10:15:01.478Z,100.00
2022-11-29T10:17:50.383Z,100.00
2022-11-29T10:20:53.331Z,100.00
2022-11-29T10:23:58.506Z,100.00
2022-11-29T10:26:29.301Z,100.00
2022-11-29T10:29:26.498Z,100.00
2022-11-29T10:32:10.439Z,100.00
2022-11-29T10:35:02.439Z,100.00
2022-11-29T10:38:14.656Z,100.00
2022-11-29T10:41:28.182Z,100.00
2022-11-29T10:48:06.503Z,100.00
2022-11-29T10:50:46.508Z,100.00
2022-11-29T10:53:48.305Z,100.00
2022-11-29T10:56:35.788Z,100.00
2022-11-29T11:02:29.471Z,100.00
2022-11-29T11:05:32.410Z,100.00
2022-11-29T11:08:42.199Z,100.00
2022-11-29T11:12:14.662Z,100.00
2022-11-29T11:15:37.124Z,100.00
2022-11-29T11:19:03.640Z,100.00
2022-11-29T11:21:47.908Z,100.00
2022-11-29T11:24:46.061Z,100.00
2022-11-29T11:27:39.707Z,100.00
2022-11-29T11:30:22.898Z,100.00
2022-11-29T11:33:38.056Z,100.00
2022-11-29T11:36:25.740Z,100.00
2022-11-29T11:39:20.033Z,100.00
2022-11-29T11:42:11.102Z,100.00
2022-11-29T11:45:03.318Z,100.00
2022-11-29T11:48:16.911Z,100.00
2022-11-29T11:51:33.862Z,100.00
2022-11-29T11:54:21.008Z,100.00
2022-11-29T11:56:57.377Z,100.00
2022-11-29T11:59:43.367Z,100.00
2022-11-29T12:02:41.224Z,100.00
2022-11-29T12:05:25.589Z,100.00
2022-11-29T12:08:12.578Z,100.00
2022-11-29T12:10:51.067Z,100.00
2022-11-29T12:13:32.638Z,100.00
2022-11-29T12:16:30.385Z,99.98
2022-11-29T12:19:13.682Z,99.81
2022-11-29T12:21:54.501Z,99.82
2022-11-29T12:27:46.179Z,99.87
2022-11-29T12:30:28.865Z,99.59
2022-11-29T12:33:22.866Z,99.75
2022-11-29T12:36:19.641Z,99.22
2022-11-29T12:39:18.173Z,98.93
2022-11-29T12:42:34.230Z,98.81
2022-11-29T12:45:24.109Z,98.89
2022-11-29T12:48:42.653Z,98.28
2022-11-29T12:51:58.100Z,98.05
2022-11-29T12:54:32.944Z,97.94
2022-11-29T12:57:23.597Z,97.72
2022-11-29T13:00:25.266Z,97.27
2022-11-29T13:03:04.317Z,97.38
2022-11-29T13:06:08.492Z,97.22
2022-11-29T13:09:04.201Z,97.02
2022-11-29T13:12:07.574Z,97.17
2022-11-29T13:15:02.323Z,97.10
2022-11-29T13:17:50.155Z,96.68
2022-11-29T13:20:59.842Z,96.68
2022-11-29T13:24:31.864Z,96.58
2022-11-29T13:27:17.678Z,96.64
2022-11-29T13:29:57.924Z,96.58
2022-11-29T13:33:14.839Z,96.16
2022-11-29T13:36:14.324Z,96.63
2022-11-29T13:39:27.856Z,96.21
2022-11-29T13:42:17.942Z,96.39
2022-11-29T13:45:31.762Z,96.47
2022-11-29T13:48:28.291Z,96.19
2022-11-29T13:51:41.972Z,96.23
2022-11-29T13:58:19.253Z,96.36
2022-11-29T14:01:09.848Z,96.35
2022-11-29T14:04:16.643Z,96.40
2022-11-29T14:09:55.749Z,96.47
2022-11-29T14:12:44.211Z,96.61
2022-11-29T14:15:35.691Z,96.82
2022-11-29T14:18:38.221Z,96.72
2022-11-29T14:21:18.084Z,96.71
2022-11-29T14:27:31.370Z,96.76
2022-11-29T14:30:05.464Z,97.06
2022-11-29T14:33:15.367Z,97.14
2022-11-29T14:36:08.871Z,97.05
2022-11-29T14:39:22.084Z,97.15
2022-11-29T14:43:02.852Z,97.13
2022-11-29T14:45:43.015Z,97.33
2022-11-29T14:48:42.214Z,97.31
2022-11-29T14:51:36.038Z,97.60
2022-11-29T14:54:20.618Z,97.53
2022-11-29T14:57:03.796Z,97.62
2022-11-29T14:59:50.346Z,97.58
2022-11-29T15:02:46.906Z,97.63
2022-11-29T15:05:54.142Z,97.80
2022-11-29T15:08:30.260Z,97.98
2022-11-29T15:11:06.249Z,98.01
2022-11-29T15:13:59.201Z,98.03
2022-11-29T15:17:18.569Z,98.05
2022-11-29T15:20:14.508Z,98.07
2022-11-29T15:23:11.724Z,98.31
2022-11-29T15:26:22.180Z,98.29
2022-11-29T15:29:23.164Z,98.33
2022-11-29T15:35:50.420Z,98.24
2022-11-29T15:39:03.380Z,98.23
2022-11-29T15:41:58.008Z,98.24
2022-11-29T15:44:28.923Z,98.13
2022-11-29T15:47:16.208Z,97.97
2022-11-29T15:49:47.804Z,98.03
2022-11-29T15:52:32.113Z,98.26
2022-11-29T15:55:12.038Z,98.03
2022-11-29T15:57:48.409Z,98.17
2022-11-29T16:00:24.257Z,98.26
2022-11-29T16:03:07.808Z,98.14
2022-11-29T16:05:42.457Z,98.37
2022-11-29T16:08:20.090Z,98.40
2022-11-29T16:10:57.324Z,98.32
2022-11-29T16:13:33.143Z,98.37
2022-11-29T16:16:08.189Z,98.28
2022-11-29T16:18:44.620Z,98.41
2022-11-29T16:21:34.229Z,98.37
2022-11-29T16:24:14.047Z,98.37
2022-11-29T16:27:07.852Z,98.50
2022-11-29T16:29:43.559Z,98.61
2022-11-29T16:32:31.331Z,98.72
2022-11-29T16:35:43.317Z,98.52
2022-11-29T16:38:27.269Z,98.63
2022-11-29T16:41:09.706Z,98.62
2022-11-29T16:43:49.838Z,98.68
2022-11-29T16:46:27.332Z,98.78
2022-11-29T16:49:03.938Z,98.86
2022-11-29T16:51:52.113Z,98.91
2022-11-29T16:54:28.502Z,98.79
2022-11-29T16:56:58.531Z,98.93
2022-11-29T16:59:28.841Z,99.07
2022-11-29T17:01:58.307Z,99.08
2022-11-29T17:04:29.409Z,98.96
2022-11-29T17:07:00.372Z,99.14
2022-11-29T17:09:34.576Z,99.05
2022-11-29T17:12:13.928Z,99.20
2022-11-29T17:14:47.251Z,99.31
2022-11-29T17:17:28.184Z,99.37
2022-11-29T17:19:57.665Z,99.39
2022-11-29T17:22:38.425Z,99.56
2022-11-29T17:25:07.914Z,99.40
2022-11-29T17:27:37.146Z,99.53
2022-11-29T17:30:08.152Z,99.57
2022-11-29T17:32:37.530Z,99.59
2022-11-29T17:35:06.396Z,99.61
2022-11-29T17:37:35.778Z,99.52
2022-11-29T17:40:05.011Z,99.70
2022-11-29T17:42:37.419Z,99.68
2022-11-29T17:45:06.527Z,99.76
2022-11-29T17:47:40.303Z,99.82
2022-11-29T17:50:09.634Z,99.91
2022-11-29T17:52:40.235Z,99.80
2022-11-29T17:55:09.316Z,99.78
2022-11-29T17:57:38.634Z,99.82
2022-11-29T18:00:09.248Z,99.93
2022-11-29T18:02:38.374Z,99.89
2022-11-29T18:05:09.157Z,99.90
2022-11-29T18:07:58.823Z,99.93
2022-11-29T18:10:29.045Z,100.00
2022-11-29T18:12:58.356Z,99.98
2022-11-29T18:15:26.992Z,99.99
2022-11-29T18:17:55.646Z,100.00
2022-11-29T18:20:24.785Z,100.00
2022-11-29T18:22:53.664Z,100.00
2022-11-29T18:25:39.634Z,100.00
2022-11-29T18:28:11.855Z,100.00
2022-11-29T18:30:41.878Z,100.00
2022-11-29T18:33:11.510Z,100.00
2022-11-29T18:35:42.877Z,100.00
2022-11-29T18:38:16.544Z,100.00
2022-11-29T18:40:46.365Z,100.00
2022-11-29T18:43:17.479Z,100.00
2022-11-29T18:45:46.838Z,100.00
2022-11-29T18:48:18.125Z,100.00
2022-11-29T18:50:47.317Z,100.00
2022-11-29T18:53:16.866Z,100.00
2022-11-29T18:55:50.422Z,100.00
2022-11-29T18:58:21.484Z,100.00
2022-11-29T19:01:24.631Z,100.00
2022-11-29T19:03:59.822Z,100.00
2022-11-29T19:06:38.950Z,100.00
2022-11-29T19:09:15.076Z,100.00
2022-11-29T19:11:54.451Z,100.00
2022-11-29T19:17:40.158Z,100.00
2022-11-29T19:20:17.756Z,100.00
2022-11-29T19:23:00.660Z,100.00
2022-11-29T19:28:57.906Z,100.00
2022-11-29T19:31:59.931Z,100.00
2022-11-29T19:38:13.776Z,100.00
2022-11-29T19:41:18.662Z,100.00
2022-11-29T19:44:07.455Z,100.00
2022-11-29T19:49:47.089Z,100.00
2022-11-29T19:55:23.926Z,100.00
2022-11-29T19:57:59.699Z,100.00
2022-11-29T20:00:35.226Z,100.00
2022-11-29T20:03:09.967Z,100.00
2022-11-29T20:06:31.321Z,100.00
2022-11-29T20:09:20.797Z,100.00
2022-11-29T20:11:50.685Z,100.00
2022-11-29T20:14:49.764Z,100.00
2022-11-29T20:17:27.642Z,100.00
2022-11-29T20:20:05.760Z,100.00
2022-11-29T20:22:53.474Z,100.00
2022-11-29T20:25:28.617Z,100.00
2022-11-29T20:28:07.132Z,100.00
2022-11-29T20:31:14.734Z,100.00
2022-11-29T20:33:55.231Z,100.00
2022-11-29T20:40:09.411Z,100.00
2022-11-29T20:43:19.514Z,100.00
2022-11-29T20:45:59.241Z,100.00
2022-11-29T20:48:35.781Z,100.00
2022-11-29T20:51:14.378Z,100.00
2022-11-29T20:53:47.082Z,100.00
2022-11-29T20:56:22.702Z,100.00
2022-11-29T20:59:05.505Z,100.00
2022-11-29T21:01:47.704Z,100.00
2022-11-29T21:04:56.526Z,100.00
2022-11-29T21:07:40.036Z,100.00
2022-11-29T21:10:13.398Z,100.00
2022-11-29T21:12:51.265Z,100.00
2022-11-29T21:15:28.201Z,100.00
2022-11-29T21:17:58.335Z,100.00
2022-11-29T21:20:31.564Z,100.00
2022-11-29T21:23:15.762Z,100.00
2022-11-29T21:26:05.319Z,100.00
2022-11-29T21:28:51.028Z,100.00
2022-11-29T21:31:26.715Z,100.00
2022-11-29T21:33:57.515Z,100.00
2022-11-29T21:36:28.350Z,100.00
2022-11-29T21:39:03.624Z,100.00
2022-11-29T21:41:36.311Z,100.00
2022-11-29T21:44:08.810Z,100.00
2022-11-29T21:46:39.670Z,100.00
2022-11-29T21:49:09.767Z,100.00
2022-11-29T21:51:40.186Z,100.00
2022-11-29T21:54:16.967Z,100.00
2022-11-29T21:56:51.976Z,100.00
2022-11-29T21:59:29.139Z,100.00
2022-11-29T22:02:00.756Z,100.00
2022-11-29T22:04:33.701Z,100.00
2022-11-29T22:07:07.868Z,100.00
2022-11-29T22:09:42.351Z,100.00
2022-11-29T22:12:34.989Z,100.00
2022-11-29T22:15:27.903Z,100.00
2022-11-29T22:18:01.982Z,100.00
2022-11-29T22:20:35.431Z,100.00
2022-11-29T22:23:11.569Z,100.00
2022-11-29T22:25:45.140Z,100.00
2022-11-29T22:28:20.132Z,100.00
2022-11-29T22:30:52.793Z,100.00
2022-11-29T22:33:34.686Z,100.00
2022-11-29T22:36:14.029Z,100.00
2022-11-29T22:38:50.838Z,100.00
2022-11-29T22:41:20.282Z,100.00
2022-11-29T22:43:50.098Z,100.00
2022-11-29T22:46:26.667Z,100.00
2022-11-29T22:49:02.746Z,100.00
2022-11-29T22:51:41.320Z,100.00
2022-11-29T22:54:18.762Z,100.00
2022-11-29T22:56:51.051Z,100.00
2022-11-29T22:59:20.220Z,100.00
2022-11-29T23:01:58.437Z,100.00
2022-11-29T23:04:31.720Z,100.00
2022-11-29T23:07:07.059Z,100.00
2022-11-29T23:09:47.937Z,100.00
2022-11-29T23:12:24.418Z,100.00
2022-11-29T23:15:09.627Z,100.00
2022-11-29T23:18:18.519Z,100.00
2022-11-29T23:20:51.239Z,100.00
2022-11-29T23:23:21.257Z,100.00
2022-11-29T23:25:57.495Z,100.00
2022-11-29T23:28:38.009Z,100.00
2022-11-29T23:31:14.618Z,100.00
2022-11-29T23:33:53.728Z,100.00
2022-11-29T23:36:31.718Z,100.00
2022-11-29T23:39:06.925Z,100.00
2022-11-29T23:41:41.009Z,100.00
2022-11-29T23:44:16.246Z,100.00
2022-11-29T23:46:57.642Z,100.00
2022-11-29T23:49:38.683Z,100.00
2022-11-29T23:52:25.929Z,100.00
2022-11-29T23:55:24.530Z,100.00
2022-11-29T23:58:23.922Z,100.00
